Aviation Digital Data Service (ADDS)

Output produced by METARs form (0301 UTC 20 March 2019)
found at http://www.aviationweather.gov/metar/data/
 
KCAK 200251Z 16004KT 10SM CLR 02/M07 A3032 RMK AO2 SLP279 T00171067 58008
KCAK 192332Z 2000/2024 VRB03KT P6SM SCT250 
     FM201500 19012KT P6SM SCT050 BKN150 
     FM202100 19012G20KT P6SM BKN045